<?xml version='1.0' encoding='UTF-8'?><gpx version="1.1" creator="JPX - https://github.com/jenetics/jpx" xmlns="http://www.topografix.com/GPX/1/1"><trk><trkseg><trkpt lat="44.676529664192884" lon="8.465542730037859"><ele>163.0</ele><time>2026-04-22T08:34:55.792Z</time></trkpt><trkpt lat="44.676720355732535" lon="8.465686886879864"><ele>163.0</ele><time>2026-04-22T08:35:16.951Z</time></trkpt><trkpt lat="44.67691447427974" lon="8.465854263543696"><ele>163.0</ele><time>2026-04-22T08:35:18.319Z</time></trkpt><trkpt lat="44.67700802478194" lon="8.465831650051284"><ele>162.8</ele><time>2026-04-22T08:35:27.092Z</time></trkpt><trkpt lat="44.677008608103556" lon="8.465737525220684"><ele>162.60000000000002</ele><time>2026-04-22T08:35:29.092Z</time></trkpt><trkpt lat="44.677117305511196" lon="8.465430103889695"><ele>162.39999999999998</ele><time>2026-04-22T08:35:34.092Z</time></trkpt><trkpt lat="44.6771808163151" lon="8.465432740771941"><ele>162.2</ele><time>2026-04-22T08:35:35.97Z</time></trkpt><trkpt lat="44.67721630635621" lon="8.465342291133881"><ele>162.0</ele><time>2026-04-22T08:35:42.97Z</time></trkpt><trkpt lat="44.67726151118229" lon="8.46527917290903"><ele>162.0</ele><time>2026-04-22T08:35:47.97Z</time></trkpt><trkpt lat="44.677302865398" lon="8.46519577156928"><ele>162.0</ele><time>2026-04-22T08:35:53.97Z</time></trkpt><trkpt lat="44.67734480820598" lon="8.4651099339002"><ele>162.0</ele><time>2026-04-22T08:36:00.97Z</time></trkpt><trkpt lat="44.67740005814911" lon="8.465055251251918"><ele>162.0</ele><time>2026-04-22T08:36:05.97Z</time></trkpt><trkpt lat="44.67745658585041" lon="8.464988569213785"><ele>162.0</ele><time>2026-04-22T08:36:11.97Z</time></trkpt><trkpt lat="44.677499227223564" lon="8.464922667307798"><ele>162.0</ele><time>2026-04-22T08:36:16.97Z</time></trkpt><trkpt lat="44.677518696236106" lon="8.464834523135835"><ele>162.0</ele><time>2026-04-22T08:36:21.972Z</time></trkpt><trkpt lat="44.67752910287288" lon="8.464727839367056"><ele>162.0</ele><time>2026-04-22T08:36:29.984Z</time></trkpt><trkpt lat="44.67753748500898" lon="8.46462104955363"><ele>162.0</ele><time>2026-04-22T08:36:36.99Z</time></trkpt><trkpt lat="44.67753167629966" lon="8.464526616131554"><ele>162.0</ele><time>2026-04-22T08:36:44.994Z</time></trkpt><trkpt lat="44.67746491737486" lon="8.464502926011646"><ele>162.0</ele><time>2026-04-22T08:36:48.996Z</time></trkpt><trkpt lat="44.67740062112731" lon="8.464503867168496"><ele>162.0</ele><time>2026-04-22T08:36:52.997Z</time></trkpt><trkpt lat="44.67733164088172" lon="8.464523444733786"><ele>162.0</ele><time>2026-04-22T08:36:56.998Z</time></trkpt><trkpt lat="44.67725031963697" lon="8.464537465944531"><ele>162.0</ele><time>2026-04-22T08:37:01.998Z</time></trkpt><trkpt lat="44.67718341852581" lon="8.4645342521245"><ele>162.14285714285714</ele><time>2026-04-22T08:37:06.999Z</time></trkpt><trkpt lat="44.677118866624625" lon="8.464535890880574"><ele>162.28571428571428</ele><time>2026-04-22T08:37:11.999Z</time></trkpt><trkpt lat="44.67705191476823" lon="8.464511947828512"><ele>162.42857142857144</ele><time>2026-04-22T08:37:17Z</time></trkpt><trkpt lat="44.67697933982252" lon="8.464531334982473"><ele>162.57142857142856</ele><time>2026-04-22T08:37:22Z</time></trkpt><trkpt lat="44.67691241810825" lon="8.464514868816181"><ele>162.7142857142857</ele><time>2026-04-22T08:37:26Z</time></trkpt><trkpt lat="44.67684514623278" lon="8.464497696335405"><ele>162.85714285714286</ele><time>2026-04-22T08:37:30Z</time></trkpt><trkpt lat="44.67679053041687" lon="8.46444694010843"><ele>163.0</ele><time>2026-04-22T08:37:34Z</time></trkpt><trkpt lat="44.676719860649136" lon="8.46444604484042"><ele>163.0</ele><time>2026-04-22T08:37:40Z</time></trkpt><trkpt lat="44.67664544779136" lon="8.464445076061027"><ele>163.0</ele><time>2026-04-22T08:37:45Z</time></trkpt><trkpt lat="44.67657667842253" lon="8.464459596166256"><ele>163.0</ele><time>2026-04-22T08:37:50Z</time></trkpt><trkpt lat="44.67654113372813" lon="8.464545653283459"><ele>163.0</ele><time>2026-04-22T08:37:56Z</time></trkpt><trkpt lat="44.67653569060748" lon="8.464644896172159"><ele>163.0</ele><time>2026-04-22T08:38:02Z</time></trkpt><trkpt lat="44.676527242179674" lon="8.464747758237433"><ele>163.0</ele><time>2026-04-22T08:38:07Z</time></trkpt><trkpt lat="44.676541203552745" lon="8.464857595831495"><ele>163.0</ele><time>2026-04-22T08:38:12Z</time></trkpt><trkpt lat="44.676550967802804" lon="8.464974952261857"><ele>163.0</ele><time>2026-04-22T08:38:17Z</time></trkpt><trkpt lat="44.676550777487" lon="8.465081488065204"><ele>163.0</ele><time>2026-04-22T08:38:23Z</time></trkpt><trkpt lat="44.67655149382322" lon="8.465183602453175"><ele>163.0</ele><time>2026-04-22T08:38:30.001Z</time></trkpt><trkpt lat="44.67654916411326" lon="8.465283763180766"><ele>163.0</ele><time>2026-04-22T08:38:35Z</time></trkpt><trkpt lat="44.67659322748947" lon="8.465349332948634"><ele>163.0</ele><time>2026-04-22T08:38:39Z</time></trkpt><trkpt lat="44.676569720547164" lon="8.465449331352085"><ele>163.0</ele><time>2026-04-22T08:38:46Z</time></trkpt><trkpt lat="44.676528379786845" lon="8.465534033957596"><ele>163.0</ele><time>2026-04-22T08:38:51Z</time></trkpt><trkpt lat="44.6765032159769" lon="8.465639260464318"><ele>163.0</ele><time>2026-04-22T08:38:56Z</time></trkpt><trkpt lat="44.67647773290963" lon="8.465738811574484"><ele>163.0</ele><time>2026-04-22T08:39:03Z</time></trkpt><trkpt lat="44.676357104556345" lon="8.46579006068026"><ele>163.0</ele><time>2026-04-22T08:39:06Z</time></trkpt><trkpt lat="44.67627837789842" lon="8.465805171131139"><ele>163.0</ele><time>2026-04-22T08:39:09Z</time></trkpt><trkpt lat="44.67622874259248" lon="8.465866601366663"><ele>163.0</ele><time>2026-04-22T08:39:19Z</time></trkpt><trkpt lat="44.67617347001922" lon="8.465818331585018"><ele>163.0</ele><time>2026-04-22T08:39:23Z</time></trkpt><trkpt lat="44.67610551820697" lon="8.46581838135573"><ele>163.0</ele><time>2026-04-22T08:39:26Z</time></trkpt><trkpt lat="44.676035783001446" lon="8.465796996764038"><ele>163.0</ele><time>2026-04-22T08:39:29.999Z</time></trkpt><trkpt lat="44.675975344074025" lon="8.465750820107166"><ele>163.0</ele><time>2026-04-22T08:39:34.999Z</time></trkpt><trkpt lat="44.67591318452075" lon="8.465705813906618"><ele>163.0</ele><time>2026-04-22T08:39:39.999Z</time></trkpt><trkpt lat="44.67587168879597" lon="8.465638642537632"><ele>163.0</ele><time>2026-04-22T08:39:43.999Z</time></trkpt><trkpt lat="44.675810592311045" lon="8.46559323899871"><ele>163.0</ele><time>2026-04-22T08:39:48.999Z</time></trkpt><trkpt lat="44.67573981226274" lon="8.465556284851592"><ele>163.0</ele><time>2026-04-22T08:39:53.999Z</time></trkpt><trkpt lat="44.67567306597969" lon="8.465550122628255"><ele>163.0</ele><time>2026-04-22T08:39:58.999Z</time></trkpt><trkpt lat="44.67560797835153" lon="8.465533029455422"><ele>163.0</ele><time>2026-04-22T08:40:03.999Z</time></trkpt><trkpt lat="44.67554286112005" lon="8.465529235223023"><ele>163.0</ele><time>2026-04-22T08:40:08.999Z</time></trkpt><trkpt lat="44.67547361378613" lon="8.465520914052671"><ele>163.0</ele><time>2026-04-22T08:40:13.999Z</time></trkpt><trkpt lat="44.67543974277129" lon="8.465597256536622"><ele>163.0</ele><time>2026-04-22T08:40:20.999Z</time></trkpt><trkpt lat="44.67539026724117" lon="8.465658149762"><ele>163.0</ele><time>2026-04-22T08:40:27.999Z</time></trkpt><trkpt lat="44.675312127972255" lon="8.465657179704507"><ele>163.0</ele><time>2026-04-22T08:40:38Z</time></trkpt><trkpt lat="44.67526151695651" lon="8.46559712407496"><ele>163.14285714285714</ele><time>2026-04-22T08:40:43Z</time></trkpt><trkpt lat="44.67519567474244" lon="8.46557830355304"><ele>163.28571428571428</ele><time>2026-04-22T08:40:49Z</time></trkpt><trkpt lat="44.67512116497766" lon="8.465589088957064"><ele>163.42857142857142</ele><time>2026-04-22T08:40:54Z</time></trkpt><trkpt lat="44.67505278188688" lon="8.465589479675003"><ele>163.57142857142856</ele><time>2026-04-22T08:40:59Z</time></trkpt><trkpt lat="44.674988508153106" lon="8.46556659074732"><ele>163.71428571428572</ele><time>2026-04-22T08:41:03Z</time></trkpt><trkpt lat="44.67491345537603" lon="8.465561337526188"><ele>163.85714285714283</ele><time>2026-04-22T08:41:09Z</time></trkpt><trkpt lat="44.67484914888356" lon="8.465596769262664"><ele>164.0</ele><time>2026-04-22T08:41:14Z</time></trkpt><trkpt lat="44.674786349780014" lon="8.465633176910941"><ele>163.99999999999997</ele><time>2026-04-22T08:41:18Z</time></trkpt><trkpt lat="44.6747229937675" lon="8.465643469097229"><ele>164.0</ele><time>2026-04-22T08:41:23Z</time></trkpt><trkpt lat="44.67465316041758" lon="8.465665081011288"><ele>164.0</ele><time>2026-04-22T08:41:29Z</time></trkpt><trkpt lat="44.6745863887459" lon="8.465673944247207"><ele>164.0</ele><time>2026-04-22T08:41:33.999Z</time></trkpt><trkpt lat="44.67452169250237" lon="8.465637576662397"><ele>164.0</ele><time>2026-04-22T08:41:38.999Z</time></trkpt><trkpt lat="44.67445378852852" lon="8.465610748492233"><ele>163.99999999999997</ele><time>2026-04-22T08:41:44.999Z</time></trkpt><trkpt lat="44.67438165037143" lon="8.465619669733544"><ele>164.0</ele><time>2026-04-22T08:41:48.999Z</time></trkpt><trkpt lat="44.67430970735897" lon="8.465647582038109"><ele>164.14285714285714</ele><time>2026-04-22T08:41:53.999Z</time></trkpt><trkpt lat="44.6742404159166" lon="8.465635341794453"><ele>164.28571428571428</ele><time>2026-04-22T08:41:58.999Z</time></trkpt><trkpt lat="44.674183208168515" lon="8.465576257813309"><ele>164.42857142857144</ele><time>2026-04-22T08:42:03.999Z</time></trkpt><trkpt lat="44.67411972754272" lon="8.465554574021853"><ele>164.57142857142856</ele><time>2026-04-22T08:42:09.999Z</time></trkpt><trkpt lat="44.674045164336476" lon="8.46557743811064"><ele>164.71428571428572</ele><time>2026-04-22T08:42:14.999Z</time></trkpt><trkpt lat="44.67397701504689" lon="8.465598771812141"><ele>164.85714285714286</ele><time>2026-04-22T08:42:19.999Z</time></trkpt><trkpt lat="44.673899226239" lon="8.465589501189331"><ele>165.0</ele><time>2026-04-22T08:42:24.999Z</time></trkpt><trkpt lat="44.673830853940885" lon="8.465561767010211"><ele>165.00000000000003</ele><time>2026-04-22T08:42:29.999Z</time></trkpt><trkpt lat="44.6737614481325" lon="8.465570263062157"><ele>165.0</ele><time>2026-04-22T08:42:34.999Z</time></trkpt><trkpt lat="44.673686485778056" lon="8.465585916646523"><ele>165.0</ele><time>2026-04-22T08:42:40Z</time></trkpt><trkpt lat="44.67362139359092" lon="8.465556072371585"><ele>165.0</ele><time>2026-04-22T08:42:46Z</time></trkpt><trkpt lat="44.673554406324065" lon="8.465539989893614"><ele>165.0</ele><time>2026-04-22T08:42:51Z</time></trkpt><trkpt lat="44.673486700097214" lon="8.465512094071842"><ele>165.00000000000003</ele><time>2026-04-22T08:42:56Z</time></trkpt><trkpt lat="44.673425411407834" lon="8.465460988424706"><ele>165.0</ele><time>2026-04-22T08:43:01Z</time></trkpt><trkpt lat="44.67335501105095" lon="8.465441628377578"><ele>164.14285714285717</ele><time>2026-04-22T08:43:06Z</time></trkpt><trkpt lat="44.67328471125114" lon="8.465398975448279"><ele>163.28571428571428</ele><time>2026-04-22T08:43:11Z</time></trkpt><trkpt lat="44.67321518445989" lon="8.465354498223041"><ele>162.42857142857144</ele><time>2026-04-22T08:43:16Z</time></trkpt><trkpt lat="44.67315631495714" lon="8.465321161974384"><ele>161.57142857142858</ele><time>2026-04-22T08:43:21Z</time></trkpt><trkpt lat="44.673093070356906" lon="8.465294951943003"><ele>160.71428571428572</ele><time>2026-04-22T08:43:27Z</time></trkpt><trkpt lat="44.67308889086552" lon="8.465190730084394"><ele>159.85714285714286</ele><time>2026-04-22T08:43:32Z</time></trkpt><trkpt lat="44.67310739080749" lon="8.465091491610117"><ele>159.0</ele><time>2026-04-22T08:43:36.999Z</time></trkpt><trkpt lat="44.67315044040962" lon="8.46501670173439"><ele>159.0</ele><time>2026-04-22T08:43:41.999Z</time></trkpt><trkpt lat="44.6731872213559" lon="8.464936693424956"><ele>159.0</ele><time>2026-04-22T08:43:47.999Z</time></trkpt><trkpt lat="44.673224691097055" lon="8.46485270094305"><ele>159.0</ele><time>2026-04-22T08:43:52.999Z</time></trkpt><trkpt lat="44.673263769146466" lon="8.464768874480727"><ele>159.0</ele><time>2026-04-22T08:43:57.999Z</time></trkpt><trkpt lat="44.6732963534242" lon="8.46466473997401"><ele>159.0</ele><time>2026-04-22T08:44:05.999Z</time></trkpt><trkpt lat="44.67333584410216" lon="8.464586526657992"><ele>159.0</ele><time>2026-04-22T08:44:10.999Z</time></trkpt><trkpt lat="44.673381006591846" lon="8.46450878445726"><ele>159.0</ele><time>2026-04-22T08:44:15.999Z</time></trkpt><trkpt lat="44.67340686287817" lon="8.464426533958617"><ele>158.85714285714286</ele><time>2026-04-22T08:44:19.999Z</time></trkpt><trkpt lat="44.67344928670476" lon="8.464336408753393"><ele>158.71428571428572</ele><time>2026-04-22T08:44:25.999Z</time></trkpt><trkpt lat="44.67349140373823" lon="8.464241390310603"><ele>158.57142857142858</ele><time>2026-04-22T08:44:30.999Z</time></trkpt><trkpt lat="44.673527560257554" lon="8.464162876649196"><ele>158.42857142857144</ele><time>2026-04-22T08:44:35.999Z</time></trkpt><trkpt lat="44.67356796980746" lon="8.464094479390663"><ele>158.28571428571428</ele><time>2026-04-22T08:44:39.999Z</time></trkpt><trkpt lat="44.673620181370154" lon="8.464031081613227"><ele>158.14285714285717</ele><time>2026-04-22T08:44:45Z</time></trkpt><trkpt lat="44.67365457263392" lon="8.463955044349255"><ele>158.0</ele><time>2026-04-22T08:44:50Z</time></trkpt><trkpt lat="44.67367702147676" lon="8.463854555787211"><ele>157.85714285714286</ele><time>2026-04-22T08:44:55Z</time></trkpt><trkpt lat="44.6737131745636" lon="8.46377252783413"><ele>157.71428571428572</ele><time>2026-04-22T08:45:00Z</time></trkpt><trkpt lat="44.6737351936885" lon="8.46368453868515"><ele>157.57142857142856</ele><time>2026-04-22T08:45:04Z</time></trkpt><trkpt lat="44.673760741663386" lon="8.463596210457686"><ele>157.42857142857144</ele><time>2026-04-22T08:45:09Z</time></trkpt><trkpt lat="44.67381429304799" lon="8.463518147756675"><ele>157.28571428571428</ele><time>2026-04-22T08:45:14Z</time></trkpt><trkpt lat="44.67384785403029" lon="8.46343485474621"><ele>157.14285714285714</ele><time>2026-04-22T08:45:19Z</time></trkpt><trkpt lat="44.673883483099125" lon="8.463345402115829"><ele>157.0</ele><time>2026-04-22T08:45:25Z</time></trkpt><trkpt lat="44.67392212124674" lon="8.46327114535075"><ele>156.99999999999997</ele><time>2026-04-22T08:45:30Z</time></trkpt><trkpt lat="44.67396641905798" lon="8.463199707988863"><ele>157.0</ele><time>2026-04-22T08:45:35Z</time></trkpt><trkpt lat="44.67400569157688" lon="8.463129115284154"><ele>157.0</ele><time>2026-04-22T08:45:40Z</time></trkpt><trkpt lat="44.674042446727036" lon="8.463055140056383"><ele>157.0</ele><time>2026-04-22T08:45:45Z</time></trkpt><trkpt lat="44.67408810504736" lon="8.462987365208539"><ele>157.0</ele><time>2026-04-22T08:45:50Z</time></trkpt><trkpt lat="44.67413030540133" lon="8.46291286628362"><ele>156.99999999999997</ele><time>2026-04-22T08:45:55Z</time></trkpt><trkpt lat="44.674148205414454" lon="8.462807204036707"><ele>157.0</ele><time>2026-04-22T08:45:59.999Z</time></trkpt><trkpt lat="44.674184411391145" lon="8.4627346736422"><ele>156.99999999999997</ele><time>2026-04-22T08:46:03.999Z</time></trkpt><trkpt lat="44.67421074592925" lon="8.462647470297942"><ele>157.0</ele><time>2026-04-22T08:46:08.999Z</time></trkpt><trkpt lat="44.67424761073868" lon="8.462571498958065"><ele>157.0</ele><time>2026-04-22T08:46:12.999Z</time></trkpt><trkpt lat="44.67428598326703" lon="8.462472293274493"><ele>157.0</ele><time>2026-04-22T08:46:17.999Z</time></trkpt><trkpt lat="44.67430616883835" lon="8.462374554009124"><ele>157.0</ele><time>2026-04-22T08:46:22.999Z</time></trkpt><trkpt lat="44.674338802553216" lon="8.462287724140115"><ele>156.99999999999997</ele><time>2026-04-22T08:46:27.999Z</time></trkpt><trkpt lat="44.6743482580036" lon="8.462187256137687"><ele>157.0</ele><time>2026-04-22T08:46:32.999Z</time></trkpt><trkpt lat="44.67434348313989" lon="8.462080249559882"><ele>156.85714285714283</ele><time>2026-04-22T08:46:37.999Z</time></trkpt><trkpt lat="44.67434597330718" lon="8.46197831610699"><ele>156.71428571428572</ele><time>2026-04-22T08:46:42.999Z</time></trkpt><trkpt lat="44.674344635595155" lon="8.461878498437478"><ele>156.57142857142856</ele><time>2026-04-22T08:46:47.999Z</time></trkpt><trkpt lat="44.674338209074776" lon="8.461773028923355"><ele>156.42857142857142</ele><time>2026-04-22T08:46:53Z</time></trkpt><trkpt lat="44.67433999302874" lon="8.461672998892343"><ele>156.28571428571428</ele><time>2026-04-22T08:46:58Z</time></trkpt><trkpt lat="44.67433739431639" lon="8.46157759510465"><ele>156.14285714285714</ele><time>2026-04-22T08:47:03Z</time></trkpt><trkpt lat="44.67435495754137" lon="8.461477873789235"><ele>156.0</ele><time>2026-04-22T08:47:08Z</time></trkpt><trkpt lat="44.674354536800955" lon="8.461357721654647"><ele>156.14285714285714</ele><time>2026-04-22T08:47:13Z</time></trkpt><trkpt lat="44.674335001048746" lon="8.461270945434588"><ele>156.28571428571428</ele><time>2026-04-22T08:47:18Z</time></trkpt><trkpt lat="44.67432472844345" lon="8.461179677438704"><ele>156.42857142857142</ele><time>2026-04-22T08:47:23Z</time></trkpt><trkpt lat="44.67431730359871" lon="8.461069510809933"><ele>156.57142857142856</ele><time>2026-04-22T08:47:29Z</time></trkpt><trkpt lat="44.67433349596941" lon="8.460980243731527"><ele>156.71428571428572</ele><time>2026-04-22T08:47:33Z</time></trkpt><trkpt lat="44.67431044406812" lon="8.460896669505455"><ele>156.85714285714283</ele><time>2026-04-22T08:47:37Z</time></trkpt><trkpt lat="44.674311694308" lon="8.460792014130327"><ele>157.0</ele><time>2026-04-22T08:47:43Z</time></trkpt><trkpt lat="44.674314735130125" lon="8.460694911901603"><ele>156.99999999999997</ele><time>2026-04-22T08:47:47Z</time></trkpt><trkpt lat="44.674318565801435" lon="8.460586351973465"><ele>157.0</ele><time>2026-04-22T08:47:52Z</time></trkpt><trkpt lat="44.67433200410716" lon="8.460496465154236"><ele>157.0</ele><time>2026-04-22T08:47:57Z</time></trkpt><trkpt lat="44.67432455579067" lon="8.460399734569416"><ele>157.0</ele><time>2026-04-22T08:48:01.999Z</time></trkpt><trkpt lat="44.674305719286984" lon="8.460300450038963"><ele>157.0</ele><time>2026-04-22T08:48:06.999Z</time></trkpt><trkpt lat="44.674297497198275" lon="8.460206623523597"><ele>156.99999999999997</ele><time>2026-04-22T08:48:11.999Z</time></trkpt><trkpt lat="44.67429819700856" lon="8.460113239645823"><ele>157.0</ele><time>2026-04-22T08:48:16.999Z</time></trkpt><trkpt lat="44.674301084905096" lon="8.460006954295679"><ele>156.85714285714283</ele><time>2026-04-22T08:48:21.999Z</time></trkpt><trkpt lat="44.67428174962318" lon="8.459910620124765"><ele>156.71428571428572</ele><time>2026-04-22T08:48:26.999Z</time></trkpt><trkpt lat="44.67427458017004" lon="8.459805480158058"><ele>156.57142857142856</ele><time>2026-04-22T08:48:32.999Z</time></trkpt><trkpt lat="44.67428645466736" lon="8.459705170260628"><ele>156.42857142857142</ele><time>2026-04-22T08:48:37.999Z</time></trkpt><trkpt lat="44.67427941526486" lon="8.459616833467143"><ele>156.28571428571428</ele><time>2026-04-22T08:48:40.999Z</time></trkpt><trkpt lat="44.674255916200266" lon="8.459521408143653"><ele>156.14285714285714</ele><time>2026-04-22T08:48:45.999Z</time></trkpt><trkpt lat="44.674233033872135" lon="8.459423736602082"><ele>156.0</ele><time>2026-04-22T08:48:50.999Z</time></trkpt><trkpt lat="44.6742221141574" lon="8.459321759173848"><ele>155.57142857142858</ele><time>2026-04-22T08:48:57Z</time></trkpt><trkpt lat="44.674204583766006" lon="8.459227396379932"><ele>155.14285714285714</ele><time>2026-04-22T08:49:03Z</time></trkpt><trkpt lat="44.67418425325515" lon="8.459136206927186"><ele>154.71428571428572</ele><time>2026-04-22T08:49:13Z</time></trkpt><trkpt lat="44.67417329980178" lon="8.459037778191705"><ele>154.28571428571428</ele><time>2026-04-22T08:49:50Z</time></trkpt><trkpt lat="44.67419799611393" lon="8.458949840232869"><ele>153.85714285714286</ele><time>2026-04-22T08:49:54Z</time></trkpt><trkpt lat="44.674203263524674" lon="8.458858535543335"><ele>153.42857142857142</ele><time>2026-04-22T08:49:59Z</time></trkpt><trkpt lat="44.67419023125221" lon="8.458757569202714"><ele>153.0</ele><time>2026-04-22T08:50:05Z</time></trkpt><trkpt lat="44.67419745165622" lon="8.458667063444729"><ele>153.0</ele><time>2026-04-22T08:50:10.999Z</time></trkpt><trkpt lat="44.674234884055295" lon="8.458592687434036"><ele>153.0</ele><time>2026-04-22T08:50:15.999Z</time></trkpt><trkpt lat="44.67429316112583" lon="8.45852303902955"><ele>153.0</ele><time>2026-04-22T08:50:20.999Z</time></trkpt><trkpt lat="44.6743493715227" lon="8.458458399376708"><ele>153.0</ele><time>2026-04-22T08:50:25.999Z</time></trkpt><trkpt lat="44.674390558153625" lon="8.45838853698096"><ele>153.0</ele><time>2026-04-22T08:50:29.999Z</time></trkpt><trkpt lat="44.67443841626457" lon="8.45830510907212"><ele>153.0</ele><time>2026-04-22T08:50:36.999Z</time></trkpt><trkpt lat="44.67448236753641" lon="8.458220234137142"><ele>153.0</ele><time>2026-04-22T08:50:41.999Z</time></trkpt><trkpt lat="44.67454018390218" lon="8.458154843084586"><ele>153.42857142857142</ele><time>2026-04-22T08:50:46.999Z</time></trkpt><trkpt lat="44.67458404755286" lon="8.458066712721235"><ele>153.85714285714286</ele><time>2026-04-22T08:50:52.999Z</time></trkpt><trkpt lat="44.67465513796164" lon="8.458016723649758"><ele>154.28571428571428</ele><time>2026-04-22T08:50:57.999Z</time></trkpt><trkpt lat="44.67468913074569" lon="8.457932015172858"><ele>154.71428571428572</ele><time>2026-04-22T08:51:03Z</time></trkpt><trkpt lat="44.674715087112766" lon="8.457839247513839"><ele>155.14285714285714</ele><time>2026-04-22T08:51:10Z</time></trkpt><trkpt lat="44.674763228768114" lon="8.457757632121142"><ele>155.57142857142858</ele><time>2026-04-22T08:51:15Z</time></trkpt><trkpt lat="44.6748033093994" lon="8.457688749612753"><ele>156.0</ele><time>2026-04-22T08:51:19Z</time></trkpt><trkpt lat="44.674853964172215" lon="8.457604988519508"><ele>156.14285714285714</ele><time>2026-04-22T08:51:24Z</time></trkpt><trkpt lat="44.67491290029361" lon="8.457541680276364"><ele>156.28571428571428</ele><time>2026-04-22T08:51:29Z</time></trkpt><trkpt lat="44.674961683447364" lon="8.457479229258059"><ele>156.42857142857142</ele><time>2026-04-22T08:51:34Z</time></trkpt><trkpt lat="44.674973082650965" lon="8.457391478741485"><ele>156.57142857142856</ele><time>2026-04-22T08:51:41Z</time></trkpt><trkpt lat="44.67498673061644" lon="8.457276579068234"><ele>156.71428571428572</ele><time>2026-04-22T08:51:46Z</time></trkpt><trkpt lat="44.67499739025626" lon="8.457188045526289"><ele>156.85714285714283</ele><time>2026-04-22T08:51:50Z</time></trkpt><trkpt lat="44.6750095834612" lon="8.457094347747008"><ele>157.0</ele><time>2026-04-22T08:51:54.999Z</time></trkpt><trkpt lat="44.675023188336795" lon="8.457005751743958"><ele>157.14285714285714</ele><time>2026-04-22T08:51:58.999Z</time></trkpt><trkpt lat="44.67504565826125" lon="8.456920600837796"><ele>157.28571428571428</ele><time>2026-04-22T08:52:02.999Z</time></trkpt><trkpt lat="44.67505434657539" lon="8.456819888297217"><ele>157.42857142857144</ele><time>2026-04-22T08:52:07.999Z</time></trkpt><trkpt lat="44.67506564069602" lon="8.45671477318822"><ele>157.57142857142856</ele><time>2026-04-22T08:52:12.999Z</time></trkpt><trkpt lat="44.675094526457954" lon="8.456612528233753"><ele>157.71428571428572</ele><time>2026-04-22T08:52:18.999Z</time></trkpt><trkpt lat="44.6751107290657" lon="8.456515486634537"><ele>157.85714285714286</ele><time>2026-04-22T08:52:23.999Z</time></trkpt><trkpt lat="44.67512795945985" lon="8.456428469376732"><ele>158.0</ele><time>2026-04-22T08:52:27.999Z</time></trkpt><trkpt lat="44.675136170020714" lon="8.456328573180986"><ele>157.66666666666666</ele><time>2026-04-22T08:52:32.999Z</time></trkpt><trkpt lat="44.67513824593947" lon="8.456224213824662"><ele>157.33333333333331</ele><time>2026-04-22T08:52:38.999Z</time></trkpt><trkpt lat="44.67514633723123" lon="8.456134855087392"><ele>157.0</ele><time>2026-04-22T08:52:43.999Z</time></trkpt><trkpt lat="44.67517054104851" lon="8.456019037564102"><ele>156.66666666666666</ele><time>2026-04-22T08:52:48.999Z</time></trkpt><trkpt lat="44.67518399884499" lon="8.455910454350153"><ele>156.33333333333334</ele><time>2026-04-22T08:52:54.999Z</time></trkpt><trkpt lat="44.67519381456979" lon="8.45581462584195"><ele>156.0</ele><time>2026-04-22T08:52:59.999Z</time></trkpt><trkpt lat="44.675199249975265" lon="8.455701567130298"><ele>156.0</ele><time>2026-04-22T08:53:05.999Z</time></trkpt><trkpt lat="44.6752089602748" lon="8.455606398879738"><ele>156.0</ele><time>2026-04-22T08:53:11Z</time></trkpt><trkpt lat="44.67523523077481" lon="8.455517403991644"><ele>156.0</ele><time>2026-04-22T08:53:16Z</time></trkpt><trkpt lat="44.67524343683215" lon="8.455420739835192"><ele>156.0</ele><time>2026-04-22T08:53:22Z</time></trkpt><trkpt lat="44.67524668991831" lon="8.4553318910646"><ele>156.0</ele><time>2026-04-22T08:53:26Z</time></trkpt><trkpt lat="44.67525849012525" lon="8.455222936443857"><ele>156.0</ele><time>2026-04-22T08:53:31Z</time></trkpt><trkpt lat="44.67527649619434" lon="8.455129943947744"><ele>156.0</ele><time>2026-04-22T08:53:36Z</time></trkpt><trkpt lat="44.675270110976996" lon="8.455028110881699"><ele>156.14285714285714</ele><time>2026-04-22T08:53:41Z</time></trkpt><trkpt lat="44.675279523176684" lon="8.454940265446202"><ele>156.28571428571428</ele><time>2026-04-22T08:53:45Z</time></trkpt><trkpt lat="44.6752850746522" lon="8.45484916771162"><ele>156.42857142857142</ele><time>2026-04-22T08:53:50Z</time></trkpt><trkpt lat="44.675295678814145" lon="8.454736142396095"><ele>156.57142857142856</ele><time>2026-04-22T08:53:54.999Z</time></trkpt><trkpt lat="44.67530660480436" lon="8.454640274143035"><ele>156.71428571428572</ele><time>2026-04-22T08:53:59.999Z</time></trkpt><trkpt lat="44.67532076899231" lon="8.454538950214049"><ele>156.85714285714283</ele><time>2026-04-22T08:54:04.999Z</time></trkpt><trkpt lat="44.67532508237585" lon="8.454442692384784"><ele>157.0</ele><time>2026-04-22T08:54:09.999Z</time></trkpt><trkpt lat="44.675325291157435" lon="8.454336969121915"><ele>156.99999999999997</ele><time>2026-04-22T08:54:14.999Z</time></trkpt><trkpt lat="44.67534702284174" lon="8.454241701843403"><ele>157.0</ele><time>2026-04-22T08:54:19.999Z</time></trkpt><trkpt lat="44.67535957882047" lon="8.454143214814387"><ele>157.0</ele><time>2026-04-22T08:54:24.999Z</time></trkpt><trkpt lat="44.675371885890684" lon="8.454050535556478"><ele>157.0</ele><time>2026-04-22T08:54:29.999Z</time></trkpt><trkpt lat="44.67537603571217" lon="8.453945294971286"><ele>157.0</ele><time>2026-04-22T08:54:34.999Z</time></trkpt><trkpt lat="44.67538426683695" lon="8.45383779169004"><ele>156.99999999999997</ele><time>2026-04-22T08:54:40.999Z</time></trkpt><trkpt lat="44.675397174354664" lon="8.453740279886"><ele>157.0</ele><time>2026-04-22T08:54:45.999Z</time></trkpt><trkpt lat="44.67540740887443" lon="8.453646911704801"><ele>156.99999999999997</ele><time>2026-04-22T08:54:50.999Z</time></trkpt><trkpt lat="44.67541934474248" lon="8.453538710662237"><ele>157.0</ele><time>2026-04-22T08:54:55.999Z</time></trkpt><trkpt lat="44.67542654215179" lon="8.45344728562067"><ele>157.0</ele><time>2026-04-22T08:55:00.999Z</time></trkpt><trkpt lat="44.67544163893751" lon="8.45335711179781"><ele>157.0</ele><time>2026-04-22T08:55:05.999Z</time></trkpt><trkpt lat="44.6754499351198" lon="8.453264225010688"><ele>157.0</ele><time>2026-04-22T08:55:09.999Z</time></trkpt><trkpt lat="44.67546136339003" lon="8.453171141689873"><ele>156.99999999999997</ele><time>2026-04-22T08:55:14Z</time></trkpt><trkpt lat="44.67546117655677" lon="8.453072979285386"><ele>157.0</ele><time>2026-04-22T08:55:18Z</time></trkpt><trkpt lat="44.67546221796093" lon="8.45297476248661"><ele>156.85714285714283</ele><time>2026-04-22T08:55:24Z</time></trkpt><trkpt lat="44.67547259619531" lon="8.452876094510101"><ele>156.71428571428572</ele><time>2026-04-22T08:55:30Z</time></trkpt><trkpt lat="44.67549406584853" lon="8.45278065046305"><ele>156.57142857142856</ele><time>2026-04-22T08:55:36Z</time></trkpt><trkpt lat="44.675504729776726" lon="8.452677770698436"><ele>156.42857142857142</ele><time>2026-04-22T08:55:42Z</time></trkpt><trkpt lat="44.67552271543162" lon="8.45257167292816"><ele>156.28571428571428</ele><time>2026-04-22T08:55:48Z</time></trkpt><trkpt lat="44.67552513423655" lon="8.452472708281904"><ele>156.14285714285714</ele><time>2026-04-22T08:55:53Z</time></trkpt><trkpt lat="44.675534564147185" lon="8.4523751028205"><ele>156.0</ele><time>2026-04-22T08:55:59Z</time></trkpt><trkpt lat="44.675543685817765" lon="8.452282978774562"><ele>156.0</ele><time>2026-04-22T08:56:03.999Z</time></trkpt><trkpt lat="44.67555482049036" lon="8.452183581104519"><ele>156.0</ele><time>2026-04-22T08:56:09.999Z</time></trkpt><trkpt lat="44.67555564122028" lon="8.452079504425443"><ele>156.0</ele><time>2026-04-22T08:56:14.999Z</time></trkpt><trkpt lat="44.675555149139086" lon="8.451966311995132"><ele>156.0</ele><time>2026-04-22T08:56:20.999Z</time></trkpt><trkpt lat="44.675556903164654" lon="8.451877191983833"><ele>156.0</ele><time>2026-04-22T08:56:25.999Z</time></trkpt><trkpt lat="44.67556301030727" lon="8.451772104045773"><ele>156.0</ele><time>2026-04-22T08:56:30.999Z</time></trkpt><trkpt lat="44.67557505058696" lon="8.451676257794496"><ele>156.0</ele><time>2026-04-22T08:56:36.999Z</time></trkpt><trkpt lat="44.67557251554616" lon="8.451572814221299"><ele>155.85714285714286</ele><time>2026-04-22T08:56:41.999Z</time></trkpt><trkpt lat="44.675579218704826" lon="8.451482585758955"><ele>155.7142857142857</ele><time>2026-04-22T08:56:46.999Z</time></trkpt><trkpt lat="44.675581101708126" lon="8.451389762722753"><ele>155.57142857142856</ele><time>2026-04-22T08:56:51.999Z</time></trkpt><trkpt lat="44.67557967488399" lon="8.451272975402743"><ele>155.42857142857144</ele><time>2026-04-22T08:56:57.999Z</time></trkpt><trkpt lat="44.675575325594814" lon="8.45116923612274"><ele>155.28571428571428</ele><time>2026-04-22T08:57:03.999Z</time></trkpt><trkpt lat="44.675581882389054" lon="8.451076900331591"><ele>155.14285714285714</ele><time>2026-04-22T08:57:08.999Z</time></trkpt><trkpt lat="44.67558124670638" lon="8.450985051483235"><ele>155.0</ele><time>2026-04-22T08:57:13.999Z</time></trkpt><trkpt lat="44.67557276161577" lon="8.450887420847183"><ele>155.28571428571428</ele><time>2026-04-22T08:57:19Z</time></trkpt><trkpt lat="44.67557947587984" lon="8.4507980358275"><ele>155.57142857142856</ele><time>2026-04-22T08:57:24Z</time></trkpt><trkpt lat="44.675581411261476" lon="8.450699902653996"><ele>155.85714285714283</ele><time>2026-04-22T08:57:29Z</time></trkpt><trkpt lat="44.675571941461584" lon="8.450606037523956"><ele>156.14285714285714</ele><time>2026-04-22T08:57:34Z</time></trkpt><trkpt lat="44.675579401112046" lon="8.450511115029867"><ele>156.42857142857142</ele><time>2026-04-22T08:57:39Z</time></trkpt><trkpt lat="44.6755787895009" lon="8.450409166017211"><ele>156.7142857142857</ele><time>2026-04-22T08:57:44Z</time></trkpt><trkpt lat="44.67557651108697" lon="8.450318234565996"><ele>157.0</ele><time>2026-04-22T08:57:49Z</time></trkpt><trkpt lat="44.67557124906836" lon="8.450227953738109"><ele>156.99999999999997</ele><time>2026-04-22T08:57:54Z</time></trkpt><trkpt lat="44.67556066906527" lon="8.450140498950654"><ele>157.0</ele><time>2026-04-22T08:57:59Z</time></trkpt><trkpt lat="44.675540559897335" lon="8.45004555965916"><ele>157.0</ele><time>2026-04-22T08:58:03.999Z</time></trkpt><trkpt lat="44.67547077998877" lon="8.449978404002957"><ele>157.0</ele><time>2026-04-22T08:58:09.999Z</time></trkpt><trkpt lat="44.675402296097985" lon="8.44992009356041"><ele>157.0</ele><time>2026-04-22T08:58:15.999Z</time></trkpt><trkpt lat="44.67533142472538" lon="8.449868871812406"><ele>156.99999999999997</ele><time>2026-04-22T08:58:21.999Z</time></trkpt><trkpt lat="44.67526647982556" lon="8.449833635923763"><ele>157.0</ele><time>2026-04-22T08:58:26.999Z</time></trkpt><trkpt lat="44.67519859108566" lon="8.449785598336494"><ele>156.99999999999997</ele><time>2026-04-22T08:58:31.999Z</time></trkpt><trkpt lat="44.675140997162124" lon="8.449749745380831"><ele>157.0</ele><time>2026-04-22T08:58:36.999Z</time></trkpt><trkpt lat="44.67507084805864" lon="8.449703015760571"><ele>157.0</ele><time>2026-04-22T08:58:41.999Z</time></trkpt><trkpt lat="44.67501149656024" lon="8.449664123056872"><ele>157.0</ele><time>2026-04-22T08:58:46.999Z</time></trkpt><trkpt lat="44.67494539653302" lon="8.449620519199547"><ele>157.0</ele><time>2026-04-22T08:58:51.999Z</time></trkpt><trkpt lat="44.67488175053282" lon="8.44958197413028"><ele>156.99999999999997</ele><time>2026-04-22T08:58:56.999Z</time></trkpt><trkpt lat="44.674825288210585" lon="8.44952999887438"><ele>157.0</ele><time>2026-04-22T08:59:00.999Z</time></trkpt><trkpt lat="44.674770139944165" lon="8.449475188600399"><ele>156.99999999999997</ele><time>2026-04-22T08:59:05.999Z</time></trkpt><trkpt lat="44.674709708513554" lon="8.449439814006382"><ele>157.0</ele><time>2026-04-22T08:59:10.999Z</time></trkpt><trkpt lat="44.674650996177625" lon="8.449382865769868"><ele>157.0</ele><time>2026-04-22T08:59:15.999Z</time></trkpt><trkpt lat="44.674590235851504" lon="8.449324202777506"><ele>157.0</ele><time>2026-04-22T08:59:20.999Z</time></trkpt><trkpt lat="44.67453579091313" lon="8.44927443563446"><ele>157.0</ele><time>2026-04-22T08:59:26Z</time></trkpt><trkpt lat="44.67449838984292" lon="8.449185914702419"><ele>156.99999999999997</ele><time>2026-04-22T08:59:31Z</time></trkpt><trkpt lat="44.67444310695411" lon="8.44912346500522"><ele>157.0</ele><time>2026-04-22T08:59:36Z</time></trkpt><trkpt lat="44.67437891899697" lon="8.44906920790069"><ele>156.5</ele><time>2026-04-22T08:59:41Z</time></trkpt><trkpt lat="44.67432101908908" lon="8.449029408484174"><ele>156.0</ele><time>2026-04-22T08:59:46Z</time></trkpt><trkpt lat="44.67425292405642" lon="8.448984173141644"><ele>155.5</ele><time>2026-04-22T08:59:51Z</time></trkpt><trkpt lat="44.674194995770065" lon="8.448936746131489"><ele>155.0</ele><time>2026-04-22T08:59:56Z</time></trkpt><trkpt lat="44.674143407298246" lon="8.448883778678807"><ele>154.5</ele><time>2026-04-22T09:00:00Z</time></trkpt><trkpt lat="44.67404103449068" lon="8.448960294393293"><ele>154.0</ele><time>2026-04-22T09:00:15.999Z</time></trkpt><trkpt lat="44.67398035570613" lon="8.449011503000376"><ele>154.0</ele><time>2026-04-22T09:00:20.999Z</time></trkpt><trkpt lat="44.673924272490694" lon="8.44906441353382"><ele>154.0</ele><time>2026-04-22T09:00:26.999Z</time></trkpt><trkpt lat="44.67387117671463" lon="8.44911888021146"><ele>154.0</ele><time>2026-04-22T09:00:31.999Z</time></trkpt><trkpt lat="44.67380760338575" lon="8.449173858755303"><ele>154.0</ele><time>2026-04-22T09:00:45.999Z</time></trkpt><trkpt lat="44.673751328460654" lon="8.449219219036362"><ele>154.0</ele><time>2026-04-22T09:00:49.999Z</time></trkpt><trkpt lat="44.673697970343795" lon="8.44928121162932"><ele>154.0</ele><time>2026-04-22T09:00:54.999Z</time></trkpt><trkpt lat="44.67363874089574" lon="8.449332280036824"><ele>154.0</ele><time>2026-04-22T09:00:59.999Z</time></trkpt><trkpt lat="44.67358810901239" lon="8.449389173752493"><ele>154.14285714285714</ele><time>2026-04-22T09:01:04.999Z</time></trkpt><trkpt lat="44.67352750716703" lon="8.449448001038355"><ele>154.28571428571428</ele><time>2026-04-22T09:01:09.999Z</time></trkpt><trkpt lat="44.67347286517064" lon="8.449497275202932"><ele>154.42857142857144</ele><time>2026-04-22T09:01:14.999Z</time></trkpt><trkpt lat="44.673409589697634" lon="8.449554916083796"><ele>154.57142857142856</ele><time>2026-04-22T09:01:19.999Z</time></trkpt><trkpt lat="44.673359116633826" lon="8.44961123909559"><ele>154.71428571428572</ele><time>2026-04-22T09:01:24.999Z</time></trkpt><trkpt lat="44.67330306463625" lon="8.44966753324114"><ele>154.85714285714286</ele><time>2026-04-22T09:01:29.999Z</time></trkpt><trkpt lat="44.67323707827431" lon="8.449734344696132"><ele>155.0</ele><time>2026-04-22T09:01:35.999Z</time></trkpt><trkpt lat="44.67318369341197" lon="8.449789390559708"><ele>155.0</ele><time>2026-04-22T09:01:41.999Z</time></trkpt><trkpt lat="44.673126808442674" lon="8.449852303413724"><ele>155.0</ele><time>2026-04-22T09:01:46.999Z</time></trkpt><trkpt lat="44.67306599605438" lon="8.449917393057833"><ele>155.0</ele><time>2026-04-22T09:01:52.999Z</time></trkpt><trkpt lat="44.67300442782142" lon="8.449965005283204"><ele>155.0</ele><time>2026-04-22T09:01:57.999Z</time></trkpt><trkpt lat="44.67294707838709" lon="8.45001665284391"><ele>155.0</ele><time>2026-04-22T09:02:02.999Z</time></trkpt><trkpt lat="44.672892804001975" lon="8.450078800959258"><ele>155.0</ele><time>2026-04-22T09:02:07.999Z</time></trkpt><trkpt lat="44.67284403274753" lon="8.450146735370188"><ele>155.0</ele><time>2026-04-22T09:02:12.999Z</time></trkpt><trkpt lat="44.67278880785065" lon="8.450199375175538"><ele>155.14285714285714</ele><time>2026-04-22T09:02:17.999Z</time></trkpt><trkpt lat="44.672732482773306" lon="8.450246784588451"><ele>155.28571428571428</ele><time>2026-04-22T09:02:22.999Z</time></trkpt><trkpt lat="44.67267757599975" lon="8.45029122333008"><ele>155.42857142857144</ele><time>2026-04-22T09:02:27.999Z</time></trkpt><trkpt lat="44.67262006474324" lon="8.450359711228078"><ele>155.57142857142856</ele><time>2026-04-22T09:02:35.999Z</time></trkpt><trkpt lat="44.67254500657606" lon="8.450415353811891"><ele>155.7142857142857</ele><time>2026-04-22T09:02:42.999Z</time></trkpt><trkpt lat="44.67247940757466" lon="8.450465041343408"><ele>155.85714285714286</ele><time>2026-04-22T09:02:48.999Z</time></trkpt><trkpt lat="44.6724251330767" lon="8.450515940921507"><ele>156.0</ele><time>2026-04-22T09:02:53.999Z</time></trkpt><trkpt lat="44.67236186757923" lon="8.450577757260172"><ele>156.0</ele><time>2026-04-22T09:02:58.999Z</time></trkpt><trkpt lat="44.672301767893174" lon="8.450638682780351"><ele>156.0</ele><time>2026-04-22T09:03:03.999Z</time></trkpt><trkpt lat="44.67224310736032" lon="8.4506903649564"><ele>156.0</ele><time>2026-04-22T09:03:09.999Z</time></trkpt><trkpt lat="44.672187539227195" lon="8.450741960022748"><ele>156.0</ele><time>2026-04-22T09:03:14.999Z</time></trkpt><trkpt lat="44.67212862355725" lon="8.450787581341865"><ele>156.0</ele><time>2026-04-22T09:03:20.999Z</time></trkpt><trkpt lat="44.67207378563525" lon="8.450843378515673"><ele>156.0</ele><time>2026-04-22T09:03:25.999Z</time></trkpt><trkpt lat="44.672030932008894" lon="8.450919510072591"><ele>156.0</ele><time>2026-04-22T09:03:30.998Z</time></trkpt><trkpt lat="44.67197460505314" lon="8.450976333831616"><ele>155.85714285714286</ele><time>2026-04-22T09:03:35.999Z</time></trkpt><trkpt lat="44.67191946596567" lon="8.451022147841462"><ele>155.7142857142857</ele><time>2026-04-22T09:03:40.999Z</time></trkpt><trkpt lat="44.67185207354276" lon="8.451058917353997"><ele>155.57142857142856</ele><time>2026-04-22T09:03:46.999Z</time></trkpt><trkpt lat="44.67180377159458" lon="8.451123415766995"><ele>155.42857142857144</ele><time>2026-04-22T09:03:51.999Z</time></trkpt><trkpt lat="44.671748233870844" lon="8.451179644650402"><ele>155.28571428571428</ele><time>2026-04-22T09:03:56.999Z</time></trkpt><trkpt lat="44.67168911491387" lon="8.451212906042551"><ele>155.14285714285714</ele><time>2026-04-22T09:04:01.999Z</time></trkpt><trkpt lat="44.67163184358851" lon="8.451287710053458"><ele>155.0</ele><time>2026-04-22T09:04:06.999Z</time></trkpt><trkpt lat="44.67157116552223" lon="8.45133538936152"><ele>154.57142857142858</ele><time>2026-04-22T09:04:12.999Z</time></trkpt><trkpt lat="44.67151720578737" lon="8.451387352744536"><ele>154.14285714285714</ele><time>2026-04-22T09:04:17.999Z</time></trkpt><trkpt lat="44.671461673696946" lon="8.451439544756715"><ele>153.71428571428572</ele><time>2026-04-22T09:04:22.999Z</time></trkpt><trkpt lat="44.67142335870057" lon="8.451510128956627"><ele>153.28571428571428</ele><time>2026-04-22T09:04:27.999Z</time></trkpt><trkpt lat="44.671355381542874" lon="8.451561788343845"><ele>152.85714285714286</ele><time>2026-04-22T09:04:32.999Z</time></trkpt><trkpt lat="44.67130056380256" lon="8.451614134115513"><ele>152.42857142857142</ele><time>2026-04-22T09:04:38.999Z</time></trkpt><trkpt lat="44.671234488237104" lon="8.451676522965228"><ele>152.0</ele><time>2026-04-22T09:04:44.999Z</time></trkpt><trkpt lat="44.67117686652173" lon="8.4517396422405"><ele>152.0</ele><time>2026-04-22T09:04:49.999Z</time></trkpt><trkpt lat="44.6711224161352" lon="8.451791199341647"><ele>152.0</ele><time>2026-04-22T09:04:54.999Z</time></trkpt><trkpt lat="44.67105970677659" lon="8.451847440575664"><ele>152.0</ele><time>2026-04-22T09:05:00.999Z</time></trkpt><trkpt lat="44.6710040468293" lon="8.451893628175593"><ele>152.0</ele><time>2026-04-22T09:05:05.999Z</time></trkpt><trkpt lat="44.6709463496413" lon="8.45195856766347"><ele>152.0</ele><time>2026-04-22T09:05:11.999Z</time></trkpt><trkpt lat="44.67089188519385" lon="8.452020486300842"><ele>152.0</ele><time>2026-04-22T09:05:18.999Z</time></trkpt><trkpt lat="44.670832021539916" lon="8.452084167983964"><ele>152.0</ele><time>2026-04-22T09:05:23.999Z</time></trkpt><trkpt lat="44.67077678856289" lon="8.452140409086475"><ele>152.14285714285714</ele><time>2026-04-22T09:05:28.999Z</time></trkpt><trkpt lat="44.67071928250183" lon="8.452187831351024"><ele>152.2857142857143</ele><time>2026-04-22T09:05:34.999Z</time></trkpt><trkpt lat="44.670660872706506" lon="8.452236133025536"><ele>152.42857142857144</ele><time>2026-04-22T09:05:40.999Z</time></trkpt><trkpt lat="44.670609660551094" lon="8.452304614897237"><ele>152.57142857142856</ele><time>2026-04-22T09:05:47Z</time></trkpt><trkpt lat="44.67054989184556" lon="8.452352009948052"><ele>152.71428571428572</ele><time>2026-04-22T09:05:53Z</time></trkpt><trkpt lat="44.67048175241049" lon="8.452404443208172"><ele>152.85714285714286</ele><time>2026-04-22T09:05:59Z</time></trkpt><trkpt lat="44.670418305015254" lon="8.452464827216984"><ele>153.0</ele><time>2026-04-22T09:06:05Z</time></trkpt><trkpt lat="44.670360007474876" lon="8.45252852395822"><ele>153.0</ele><time>2026-04-22T09:06:11Z</time></trkpt><trkpt lat="44.67030555959451" lon="8.452586482802268"><ele>153.0</ele><time>2026-04-22T09:06:15.999Z</time></trkpt><trkpt lat="44.67024178729392" lon="8.452645337524695"><ele>153.0</ele><time>2026-04-22T09:06:21.999Z</time></trkpt><trkpt lat="44.67018287699692" lon="8.45270437412697"><ele>153.0</ele><time>2026-04-22T09:06:27.999Z</time></trkpt><trkpt lat="44.67013380913373" lon="8.452772665023764"><ele>153.0</ele><time>2026-04-22T09:06:33.999Z</time></trkpt><trkpt lat="44.67006955729919" lon="8.452821339616332"><ele>153.0</ele><time>2026-04-22T09:06:38.999Z</time></trkpt><trkpt lat="44.67001871931391" lon="8.452880979941826"><ele>153.0</ele><time>2026-04-22T09:06:43.999Z</time></trkpt><trkpt lat="44.669952211452625" lon="8.45292972481812"><ele>153.0</ele><time>2026-04-22T09:06:49.999Z</time></trkpt><trkpt lat="44.66989045866181" lon="8.452989718161115"><ele>153.0</ele><time>2026-04-22T09:06:55.999Z</time></trkpt><trkpt lat="44.66982907904241" lon="8.453050204663091"><ele>153.0</ele><time>2026-04-22T09:07:00.999Z</time></trkpt><trkpt lat="44.66976920324541" lon="8.453109174108032"><ele>153.0</ele><time>2026-04-22T09:07:06.999Z</time></trkpt><trkpt lat="44.66970484147713" lon="8.453167702534833"><ele>153.0</ele><time>2026-04-22T09:07:12.999Z</time></trkpt><trkpt lat="44.66965000032475" lon="8.453216106650055"><ele>153.0</ele><time>2026-04-22T09:07:17.999Z</time></trkpt><trkpt lat="44.66959653930964" lon="8.453265213654214"><ele>153.0</ele><time>2026-04-22T09:07:24.999Z</time></trkpt><trkpt lat="44.66953637262053" lon="8.453294876394551"><ele>153.0</ele><time>2026-04-22T09:07:30.999Z</time></trkpt><trkpt lat="44.66946808033928" lon="8.45327070576825"><ele>153.0</ele><time>2026-04-22T09:07:35.999Z</time></trkpt><trkpt lat="44.66941976671219" lon="8.453196346213721"><ele>153.0</ele><time>2026-04-22T09:07:41.999Z</time></trkpt><trkpt lat="44.66940226362656" lon="8.453106027527948"><ele>153.0</ele><time>2026-04-22T09:07:46.999Z</time></trkpt><trkpt lat="44.66935451288183" lon="8.453035205508725"><ele>153.0</ele><time>2026-04-22T09:08:06Z</time></trkpt><trkpt lat="44.66932637129958" lon="8.452955805322366"><ele>153.0</ele><time>2026-04-22T09:08:11Z</time></trkpt><trkpt lat="44.66927976833177" lon="8.452895115677528"><ele>153.0</ele><time>2026-04-22T09:08:16Z</time></trkpt><trkpt lat="44.66921698771188" lon="8.452864228449034"><ele>153.14285714285714</ele><time>2026-04-22T09:08:21Z</time></trkpt><trkpt lat="44.669155926443615" lon="8.452830560247229"><ele>153.28571428571428</ele><time>2026-04-22T09:08:25.999Z</time></trkpt><trkpt lat="44.66910295087851" lon="8.452778811190399"><ele>153.42857142857144</ele><time>2026-04-22T09:08:30.999Z</time></trkpt><trkpt lat="44.669041233139104" lon="8.452753825762017"><ele>153.57142857142856</ele><time>2026-04-22T09:08:35.999Z</time></trkpt><trkpt lat="44.66897565181034" lon="8.452749944341942"><ele>153.71428571428572</ele><time>2026-04-22T09:08:40.999Z</time></trkpt><trkpt lat="44.66893634475581" lon="8.45267151541439"><ele>153.85714285714286</ele><time>2026-04-22T09:08:46.999Z</time></trkpt><trkpt lat="44.668909213874564" lon="8.452581856920064"><ele>154.0</ele><time>2026-04-22T09:08:51.999Z</time></trkpt><trkpt lat="44.668872488142114" lon="8.452506110675257"><ele>154.0</ele><time>2026-04-22T09:08:56.999Z</time></trkpt><trkpt lat="44.66883671269863" lon="8.452421779604675"><ele>154.0</ele><time>2026-04-22T09:09:02.999Z</time></trkpt><trkpt lat="44.66881855026565" lon="8.452317379610092"><ele>154.0</ele><time>2026-04-22T09:09:14.999Z</time></trkpt><trkpt lat="44.66875617129231" lon="8.45236339745576"><ele>154.0</ele><time>2026-04-22T09:09:50.999Z</time></trkpt><trkpt lat="44.668871371718105" lon="8.452356403581591"><ele>154.0</ele><time>2026-04-22T09:10:00Z</time></trkpt><trkpt lat="44.66893638230758" lon="8.452356298367778"><ele>154.0</ele><time>2026-04-22T09:10:03Z</time></trkpt><trkpt lat="44.6690257700733" lon="8.452388023425748"><ele>154.0</ele><time>2026-04-22T09:10:07Z</time></trkpt><trkpt lat="44.66908744886181" lon="8.452427726369956"><ele>154.0</ele><time>2026-04-22T09:10:11Z</time></trkpt><trkpt lat="44.669161013808676" lon="8.452445816370506"><ele>154.0</ele><time>2026-04-22T09:10:16Z</time></trkpt><trkpt lat="44.66923673139565" lon="8.45245911708078"><ele>154.0</ele><time>2026-04-22T09:10:23Z</time></trkpt><trkpt lat="44.66930620106355" lon="8.452486057717664"><ele>154.0</ele><time>2026-04-22T09:10:29Z</time></trkpt><trkpt lat="44.669355514617834" lon="8.452417172715657"><ele>154.0</ele><time>2026-04-22T09:10:33Z</time></trkpt><trkpt lat="44.669380092851" lon="8.452327878424658"><ele>154.0</ele><time>2026-04-22T09:10:38Z</time></trkpt><trkpt lat="44.66934029375975" lon="8.452249204788053"><ele>154.0</ele><time>2026-04-22T09:10:49.999Z</time></trkpt><trkpt lat="44.669438554867625" lon="8.452259132533895"><ele>154.0</ele><time>2026-04-22T09:11:08.999Z</time></trkpt><trkpt lat="44.66936108264908" lon="8.45237116858464"><ele>154.0</ele><time>2026-04-22T09:11:15.999Z</time></trkpt><trkpt lat="44.66934717668308" lon="8.452462337244164"><ele>154.0</ele><time>2026-04-22T09:11:20.999Z</time></trkpt><trkpt lat="44.66936490433632" lon="8.452572143284867"><ele>154.0</ele><time>2026-04-22T09:11:41.064Z</time></trkpt></trkseg><trkseg><trkpt lat="44.6694181682871" lon="8.452480081387964"><ele>154.0</ele><time>2026-04-22T09:23:46.756Z</time></trkpt><trkpt lat="44.6693542947005" lon="8.45245467467338"><ele>154.0</ele><time>2026-04-22T09:23:50.757Z</time></trkpt><trkpt lat="44.66929136696531" lon="8.452452078650776"><ele>154.0</ele><time>2026-04-22T09:23:55.999Z</time></trkpt><trkpt lat="44.669228167279876" lon="8.452458181299505"><ele>154.0</ele><time>2026-04-22T09:24:01.999Z</time></trkpt><trkpt lat="44.66916749638798" lon="8.452497009379424"><ele>154.0</ele><time>2026-04-22T09:24:08Z</time></trkpt><trkpt lat="44.66909556226679" lon="8.45249306353424"><ele>154.0</ele><time>2026-04-22T09:24:14Z</time></trkpt><trkpt lat="44.669030375132074" lon="8.452523165333286"><ele>154.0</ele><time>2026-04-22T09:24:19Z</time></trkpt></trkseg></trk></gpx>